Time;durP1;ratioP1;P1;durP2;ratioP2;P2;SDS_P1;SDS_P2;PMS_P1;PMS_P2;Temp;Humidity;BMP_temperature;BMP_pressure;BME280_temperature;BME280_humidity;BME280_pressure;Samples;Min_cycle;Max_cycle;Signal;HPM_P1;HPM_P2
2023/11/10 00:02:08;;;;;;;0.50;0.40;;;6.80;99.90;;;;;;5100109;28;20384;-81
2023/11/10 00:04:36;;;;;;;2.05;0.65;;;6.90;99.90;;;;;;5086274;28;20217;-80
2023/11/10 00:07:04;;;;;;;0.50;0.40;;;6.90;99.90;;;;;;5080161;28;20202;-80
2023/11/10 00:09:32;;;;;;;0.52;0.50;;;6.90;99.90;;;;;;5085070;28;20182;-80
2023/11/10 00:12:01;;;;;;;0.50;0.50;;;6.90;99.90;;;;;;5099389;28;20275;-80
2023/11/10 00:14:29;;;;;;;0.50;0.40;;;6.90;99.90;;;;;;5099559;28;20194;-80
2023/11/10 00:16:56;;;;;;;0.50;0.40;;;6.90;99.90;;;;;;5100989;28;20585;-80
2023/11/10 00:19:24;;;;;;;0.50;0.40;;;6.90;99.90;;;;;;5098777;28;20660;-81
2023/11/10 00:21:51;;;;;;;0.50;0.40;;;6.80;99.90;;;;;;5099191;28;20222;-80
2023/11/10 00:24:17;;;;;;;0.50;0.40;;;6.80;99.90;;;;;;5099851;28;20193;-81
2023/11/10 00:26:44;;;;;;;0.80;0.80;;;6.80;99.90;;;;;;5100012;28;20661;-81
2023/11/10 00:29:12;;;;;;;9.45;1.25;;;6.80;99.90;;;;;;5099631;28;20282;-80
2023/11/10 00:31:38;;;;;;;0.50;0.40;;;6.80;99.90;;;;;;5085374;28;20693;-81
2023/11/10 00:34:05;;;;;;;0.50;0.40;;;6.80;99.90;;;;;;5079104;28;20741;-81
2023/11/10 00:36:33;;;;;;;0.50;0.50;;;6.90;99.90;;;;;;5079899;28;20230;-82
2023/11/10 00:39:00;;;;;;;0.50;0.40;;;6.90;99.90;;;;;;5081113;28;20199;-81
2023/11/10 00:41:27;;;;;;;0.47;0.40;;;6.90;99.90;;;;;;5080563;28;20218;-81
2023/11/10 00:43:54;;;;;;;0.50;0.50;;;7.00;99.90;;;;;;5079955;28;20190;-80
2023/11/10 00:46:20;;;;;;;0.50;0.40;;;7.00;99.90;;;;;;5080620;28;20302;-81
2023/11/10 00:48:47;;;;;;;0.50;0.40;;;7.10;99.90;;;;;;5080602;28;20206;-80
2023/11/10 00:51:14;;;;;;;0.50;0.40;;;7.00;99.90;;;;;;5079562;28;20613;-80
2023/11/10 00:53:42;;;;;;;1.00;0.85;;;7.10;99.90;;;;;;5080517;28;20187;-81
2023/11/10 00:56:09;;;;;;;0.50;0.40;;;7.10;99.90;;;;;;5080051;28;20195;-82
2023/11/10 00:58:36;;;;;;;0.50;0.40;;;7.00;99.90;;;;;;5093254;28;20568;-81
2023/11/10 01:01:03;;;;;;;0.50;0.40;;;7.00;99.90;;;;;;5099748;28;20696;-81
2023/11/10 01:03:30;;;;;;;0.50;0.40;;;7.00;99.90;;;;;;5100948;28;20198;-82
2023/11/10 01:05:57;;;;;;;0.50;0.40;;;7.00;99.90;;;;;;5091506;28;20233;-80
2023/11/10 01:08:24;;;;;;;0.50;0.40;;;7.00;99.90;;;;;;5068273;28;20214;-81
2023/11/10 01:10:52;;;;;;;0.50;0.40;;;7.00;99.90;;;;;;5069322;28;20293;-80
2023/11/10 01:13:19;;;;;;;0.50;0.40;;;7.10;99.90;;;;;;5075694;28;20313;-81
2023/11/10 01:15:45;;;;;;;0.50;0.40;;;7.10;99.90;;;;;;5078412;28;20190;-81
2023/11/10 01:18:12;;;;;;;0.50;0.40;;;7.10;99.90;;;;;;5078259;28;20625;-81
2023/11/10 01:20:39;;;;;;;0.50;0.40;;;7.10;99.90;;;;;;5079994;28;20242;-80
2023/11/10 01:23:06;;;;;;;0.50;0.40;;;7.10;99.90;;;;;;5079488;28;20745;-80
2023/11/10 01:25:33;;;;;;;0.50;0.40;;;7.10;99.90;;;;;;5079943;28;20236;-78
2023/11/10 01:28:01;;;;;;;0.75;0.75;;;7.10;99.90;;;;;;5079265;28;20563;-80
2023/11/10 01:30:28;;;;;;;0.50;0.40;;;7.10;99.90;;;;;;5070702;28;20219;-80
2023/11/10 01:32:54;;;;;;;0.50;0.40;;;7.10;99.90;;;;;;5079380;28;20198;-80
2023/11/10 01:35:22;;;;;;;0.50;0.50;;;7.10;99.90;;;;;;5078985;28;20228;-80
2023/11/10 01:37:49;;;;;;;0.50;0.40;;;7.10;99.90;;;;;;5094649;28;20190;-80
2023/11/10 01:40:16;;;;;;;4.43;2.90;;;7.00;99.90;;;;;;5099624;28;20224;-80
2023/11/10 01:42:42;;;;;;;0.50;0.40;;;7.00;99.90;;;;;;5099549;28;20190;-81
2023/11/10 01:45:11;;;;;;;1.00;1.00;;;7.10;99.90;;;;;;5100052;28;20190;-81
2023/11/10 01:47:39;;;;;;;0.50;0.50;;;7.10;99.90;;;;;;5098989;28;20194;-81
2023/11/10 01:50:07;;;;;;;3.63;0.82;;;7.20;99.90;;;;;;5099229;28;20190;-80
2023/11/10 01:52:34;;;;;;;0.50;0.50;;;7.20;99.90;;;;;;5080700;28;20217;-79
2023/11/10 01:55:02;;;;;;;0.50;0.40;;;7.20;99.90;;;;;;5080290;28;20289;-79
2023/11/10 01:57:29;;;;;;;1.85;1.15;;;7.20;99.90;;;;;;5072781;28;20191;-80
2023/11/10 02:00:01;;;;;;;0.50;0.40;;;7.10;99.90;;;;;;5080176;28;20214;-82
2023/11/10 02:02:29;;;;;;;0.50;0.40;;;7.20;99.90;;;;;;5092577;28;20224;-80
2023/11/10 02:04:56;;;;;;;0.60;0.60;;;7.10;99.90;;;;;;5099674;28;20688;-80
2023/11/10 02:07:23;;;;;;;0.50;0.40;;;7.20;99.90;;;;;;5099244;28;20232;-80
2023/11/10 02:09:51;;;;;;;0.50;0.40;;;7.10;99.90;;;;;;5099472;28;20212;-81
2023/11/10 02:12:18;;;;;;;0.60;0.57;;;7.10;99.90;;;;;;5099603;28;20232;-79
2023/11/10 02:14:44;;;;;;;0.70;0.70;;;7.10;99.90;;;;;;5093976;28;20241;-80
2023/11/10 02:17:11;;;;;;;0.50;0.50;;;7.20;99.90;;;;;;5079319;28;20286;-80
2023/11/10 02:19:39;;;;;;;0.50;0.40;;;7.20;99.90;;;;;;5080107;28;20195;-81
2023/11/10 02:22:06;;;;;;;0.50;0.40;;;7.20;99.90;;;;;;5080204;28;20222;-80
2023/11/10 02:24:34;;;;;;;1.05;0.70;;;7.20;99.90;;;;;;5080298;28;20194;-82
2023/11/10 02:27:03;;;;;;;0.50;0.40;;;7.20;99.90;;;;;;5079579;28;20205;-80
2023/11/10 02:29:29;;;;;;;0.50;0.40;;;7.30;99.90;;;;;;5078719;28;20194;-82
2023/11/10 02:31:56;;;;;;;0.50;0.40;;;7.20;99.90;;;;;;5080094;28;20221;-78
2023/11/10 02:34:23;;;;;;;0.70;0.55;;;7.30;99.90;;;;;;5079349;28;20194;-80
2023/11/10 02:36:51;;;;;;;0.60;0.60;;;7.30;99.90;;;;;;5122008;22;20741;-83
2023/11/10 02:39:17;;;;;;;0.50;0.40;;;7.30;99.90;;;;;;5054588;28;20206;-82
2023/11/10 02:41:44;;;;;;;1.02;0.50;;;7.30;99.90;;;;;;5056024;28;20226;-83
2023/11/10 02:44:13;;;;;;;0.60;0.60;;;7.30;99.90;;;;;;5055709;28;20195;-82
2023/11/10 02:46:40;;;;;;;0.63;0.63;;;7.40;99.90;;;;;;5056347;28;20246;-84
2023/11/10 02:49:07;;;;;;;0.50;0.50;;;7.40;99.90;;;;;;5056699;28;20570;-84
2023/11/10 02:51:34;;;;;;;1.20;1.08;;;7.40;99.90;;;;;;5048353;28;20538;-83
2023/11/10 02:54:00;;;;;;;2.25;0.90;;;7.50;99.90;;;;;;5056089;28;20345;-82
2023/11/10 02:56:27;;;;;;;0.50;0.40;;;7.50;99.90;;;;;;5056080;28;20219;-83
2023/11/10 02:58:54;;;;;;;0.50;0.50;;;7.50;99.90;;;;;;5055799;28;20203;-82
2023/11/10 03:01:23;;;;;;;0.98;0.95;;;7.50;99.90;;;;;;5056234;28;20211;-82
2023/11/10 03:03:50;;;;;;;1.27;1.17;;;7.50;99.90;;;;;;5056247;28;20289;-83
2023/11/10 03:06:17;;;;;;;0.50;0.40;;;7.40;99.90;;;;;;5056236;28;20231;-82
2023/11/10 03:08:44;;;;;;;0.50;0.40;;;7.40;99.90;;;;;;5055685;28;20199;-82
2023/11/10 03:11:11;;;;;;;0.50;0.40;;;7.40;99.90;;;;;;5055683;28;20287;-82
2023/11/10 03:13:41;;;;;;;0.50;0.40;;;7.40;99.90;;;;;;5055921;28;20206;-83
2023/11/10 03:16:08;;;;;;;0.50;0.40;;;7.30;99.90;;;;;;5055674;28;20219;-82
2023/11/10 03:18:36;;;;;;;0.50;0.40;;;7.30;99.90;;;;;;5047980;28;20195;-80
2023/11/10 03:21:04;;;;;;;0.50;0.40;;;7.30;99.90;;;;;;5055616;28;20211;-82
2023/11/10 03:23:30;;;;;;;0.50;0.40;;;7.30;99.90;;;;;;5055136;28;20303;-82
2023/11/10 03:25:57;;;;;;;0.70;0.70;;;7.30;99.90;;;;;;5056233;28;20222;-82
2023/11/10 03:28:26;;;;;;;0.50;0.40;;;7.30;99.90;;;;;;5055778;28;20195;-82
2023/11/10 03:30:54;;;;;;;0.50;0.40;;;7.30;99.90;;;;;;5056491;28;20203;-82
2023/11/10 03:33:22;;;;;;;0.50;0.40;;;7.40;99.90;;;;;;5055753;28;20863;-83
2023/11/10 03:35:50;;;;;;;0.50;0.40;;;7.30;99.90;;;;;;5055552;28;20290;-82
2023/11/10 03:38:17;;;;;;;0.50;0.40;;;7.40;99.90;;;;;;5055117;28;20213;-82
2023/11/10 03:40:45;;;;;;;1.25;1.15;;;7.40;99.90;;;;;;5055261;28;20211;-82
2023/11/10 03:43:11;;;;;;;0.95;0.60;;;7.40;99.90;;;;;;5055564;28;20722;-82
2023/11/10 03:45:39;;;;;;;0.50;0.40;;;7.40;99.90;;;;;;5047316;28;20685;-82
2023/11/10 03:48:06;;;;;;;1.40;0.70;;;7.40;99.90;;;;;;5055365;28;20693;-83
2023/11/10 03:50:33;;;;;;;0.57;0.57;;;7.40;99.90;;;;;;5055207;28;20207;-82
2023/11/10 03:53:01;;;;;;;0.50;0.50;;;7.40;99.90;;;;;;5054093;28;20247;-80
2023/11/10 03:55:28;;;;;;;0.50;0.50;;;7.40;99.90;;;;;;5057720;28;20199;-83
2023/11/10 03:57:55;;;;;;;1.13;0.95;;;7.40;99.90;;;;;;5059958;28;20215;-83
2023/11/10 04:00:22;;;;;;;0.70;0.70;;;7.40;99.90;;;;;;5059837;28;20199;-82
2023/11/10 04:02:49;;;;;;;0.70;0.70;;;7.40;99.90;;;;;;5059858;28;20206;-82
2023/11/10 04:05:16;;;;;;;0.60;0.60;;;7.50;99.90;;;;;;5059141;28;20209;-82
2023/11/10 04:07:43;;;;;;;2.35;1.10;;;7.50;99.90;;;;;;5058814;28;20219;-82
2023/11/10 04:10:12;;;;;;;0.73;0.50;;;7.50;99.90;;;;;;5059203;28;20266;-82
2023/11/10 04:12:39;;;;;;;0.50;0.40;;;7.50;99.90;;;;;;5058962;28;20199;-82
2023/11/10 04:15:06;;;;;;;0.60;0.60;;;7.60;99.90;;;;;;5058721;28;20203;-82
2023/11/10 04:17:33;;;;;;;0.55;0.47;;;7.70;99.90;;;;;;5058176;28;20215;-81
2023/11/10 04:20:00;;;;;;;0.50;0.50;;;7.60;99.90;;;;;;5059388;28;20672;-82
2023/11/10 04:22:27;;;;;;;0.50;0.50;;;7.60;99.90;;;;;;5060666;28;20222;-82
2023/11/10 04:24:54;;;;;;;0.50;0.50;;;7.60;99.90;;;;;;5063958;28;20578;-82
2023/11/10 04:27:23;;;;;;;0.60;0.40;;;7.60;99.90;;;;;;5063848;28;20223;-82
2023/11/10 04:29:50;;;;;;;0.50;0.40;;;7.60;99.90;;;;;;5065294;28;20237;-82
2023/11/10 04:32:16;;;;;;;0.50;0.50;;;7.60;99.90;;;;;;5060364;28;20203;-82
2023/11/10 04:34:43;;;;;;;0.50;0.40;;;7.60;99.90;;;;;;5050115;28;20203;-81
2023/11/10 04:37:10;;;;;;;21.98;1.60;;;7.70;99.90;;;;;;5058285;28;20281;-82
2023/11/10 04:39:37;;;;;;;6.68;0.98;;;7.70;99.90;;;;;;5058323;28;20218;-81
2023/11/10 04:42:04;;;;;;;0.60;0.50;;;7.70;99.90;;;;;;5058636;28;20222;-82
2023/11/10 04:44:32;;;;;;;0.50;0.40;;;7.70;99.90;;;;;;5057326;28;20294;-82
2023/11/10 04:46:59;;;;;;;0.50;0.40;;;7.70;99.90;;;;;;5057966;28;20309;-82
2023/11/10 04:49:25;;;;;;;0.50;0.50;;;7.60;99.90;;;;;;5058320;28;20225;-82
2023/11/10 04:51:52;;;;;;;0.50;0.40;;;7.60;99.90;;;;;;5058397;28;20195;-82
2023/11/10 04:54:19;;;;;;;0.60;0.60;;;7.60;99.90;;;;;;5056932;28;20204;-81
2023/11/10 04:56:46;;;;;;;0.75;0.55;;;7.60;99.90;;;;;;5057288;28;20215;-82
2023/11/10 04:59:13;;;;;;;5.38;2.05;;;7.60;99.90;;;;;;5057414;28;20209;-82
2023/11/10 05:01:42;;;;;;;0.50;0.40;;;7.50;99.90;;;;;;5056411;28;20223;-81
2023/11/10 05:04:12;;;;;;;0.88;0.70;;;7.50;99.90;;;;;;5056362;28;20262;-82
2023/11/10 05:06:39;;;;;;;0.90;0.90;;;7.60;99.90;;;;;;5056109;28;20709;-81
2023/11/10 05:09:06;;;;;;;2.40;1.30;;;7.60;99.90;;;;;;5055977;28;20587;-82
2023/11/10 05:11:34;;;;;;;0.50;0.40;;;7.60;99.90;;;;;;5056368;28;20226;-81
2023/11/10 05:14:00;;;;;;;0.90;0.90;;;7.60;99.90;;;;;;5056008;28;20191;-82
2023/11/10 05:16:29;;;;;;;0.70;0.70;;;7.60;99.90;;;;;;5056672;28;20219;-82
2023/11/10 05:18:57;;;;;;;1.25;1.02;;;7.60;99.90;;;;;;5056902;28;20223;-83
2023/11/10 05:21:24;;;;;;;0.50;0.40;;;7.70;99.90;;;;;;5056054;28;20293;-82
2023/11/10 05:23:51;;;;;;;1.05;0.95;;;7.70;99.90;;;;;;5055922;28;20195;-80
2023/11/10 05:26:18;;;;;;;0.65;0.65;;;7.70;99.90;;;;;;5056222;28;20225;-80
2023/11/10 05:28:45;;;;;;;0.50;0.40;;;7.70;99.90;;;;;;5055520;28;20282;-81
2023/11/10 05:31:14;;;;;;;0.50;0.40;;;7.70;99.90;;;;;;5055771;28;20214;-82
2023/11/10 05:33:41;;;;;;;0.50;0.40;;;7.70;99.90;;;;;;5055349;28;20203;-82
2023/11/10 05:36:10;;;;;;;0.50;0.40;;;7.70;99.90;;;;;;5055073;28;20226;-82
2023/11/10 05:38:36;;;;;;;0.60;0.52;;;7.70;99.90;;;;;;5056095;28;20195;-80
2023/11/10 05:41:03;;;;;;;0.50;0.50;;;7.70;99.90;;;;;;5056098;28;20203;-82
2023/11/10 05:43:30;;;;;;;1.17;0.63;;;7.80;99.90;;;;;;5055576;28;20199;-82
2023/11/10 05:45:57;;;;;;;0.60;0.60;;;7.80;99.90;;;;;;5055591;28;20211;-82
2023/11/10 05:48:23;;;;;;;5.60;1.00;;;7.80;99.90;;;;;;5055586;28;20201;-82
2023/11/10 05:50:50;;;;;;;0.50;0.50;;;7.80;99.90;;;;;;5055253;28;20253;-82
2023/11/10 05:53:19;;;;;;;1.10;1.00;;;7.80;99.90;;;;;;5056614;28;20199;-82
2023/11/10 05:55:46;;;;;;;0.50;0.45;;;7.80;99.90;;;;;;5055923;28;20192;-81
2023/11/10 05:58:12;;;;;;;1.35;0.70;;;7.90;99.90;;;;;;5058318;28;20196;-82
2023/11/10 06:00:39;;;;;;;1.35;0.85;;;7.90;99.90;;;;;;5056262;28;20199;-81
2023/11/10 06:03:07;;;;;;;0.60;0.60;;;7.90;99.90;;;;;;5055727;28;20598;-81
2023/11/10 06:05:34;;;;;;;0.60;0.60;;;7.80;99.90;;;;;;5055152;28;20218;-82
2023/11/10 06:08:00;;;;;;;2.78;1.70;;;7.80;99.90;;;;;;5055565;28;20195;-82
2023/11/10 06:10:29;;;;;;;2.65;2.45;;;7.80;99.90;;;;;;5055510;28;20205;-81
2023/11/10 06:12:55;;;;;;;5.32;0.98;;;7.90;99.90;;;;;;5055603;28;20197;-82
2023/11/10 06:15:22;;;;;;;0.95;0.80;;;7.90;99.90;;;;;;5055461;28;20225;-81
2023/11/10 06:17:49;;;;;;;0.77;0.65;;;7.90;99.90;;;;;;5055725;28;20219;-81
2023/11/10 06:20:16;;;;;;;1.45;1.35;;;7.90;99.90;;;;;;5056337;28;20206;-83
2023/11/10 06:22:43;;;;;;;4.00;0.95;;;7.90;99.90;;;;;;5055044;28;20808;-80
2023/11/10 06:25:10;;;;;;;0.50;0.40;;;7.90;99.90;;;;;;5056854;28;20227;-83
2023/11/10 06:27:39;;;;;;;0.73;0.63;;;7.90;99.90;;;;;;5056423;28;20751;-82
2023/11/10 06:30:07;;;;;;;1.60;0.50;;;7.90;99.90;;;;;;5055625;28;20199;-82
2023/11/10 06:32:35;;;;;;;0.50;0.50;;;7.90;99.90;;;;;;5055914;28;20544;-81
2023/11/10 06:35:02;;;;;;;0.50;0.40;;;7.90;99.90;;;;;;5055582;28;20734;-82
2023/11/10 06:37:28;;;;;;;1.00;0.70;;;7.90;99.90;;;;;;5055592;28;20273;-82
2023/11/10 06:39:55;;;;;;;0.82;0.70;;;7.90;99.90;;;;;;5055934;28;20206;-82
2023/11/10 06:42:22;;;;;;;0.60;0.50;;;7.80;99.90;;;;;;5055704;28;20219;-82
2023/11/10 06:44:50;;;;;;;0.50;0.40;;;7.80;99.90;;;;;;5055522;28;20209;-82
2023/11/10 06:47:17;;;;;;;0.50;0.40;;;7.90;99.90;;;;;;5055734;28;20219;-82
2023/11/10 06:49:44;;;;;;;0.50;0.40;;;7.90;99.90;;;;;;5055240;28;20203;-82
2023/11/10 06:52:11;;;;;;;0.60;0.60;;;7.80;99.90;;;;;;5058181;28;20196;-82
2023/11/10 06:54:38;;;;;;;1.77;1.67;;;7.80;99.90;;;;;;5058309;28;20198;-82
2023/11/10 06:57:06;;;;;;;0.50;0.50;;;7.90;99.90;;;;;;5057625;28;20241;-80
2023/11/10 06:59:32;;;;;;;0.50;0.40;;;7.90;99.90;;;;;;5057571;28;20195;-82
2023/11/10 07:02:02;;;;;;;0.60;0.50;;;7.90;99.90;;;;;;5059253;28;20213;-81
2023/11/10 07:04:29;;;;;;;0.50;0.40;;;7.90;99.90;;;;;;5065275;28;20262;-80
2023/11/10 07:06:56;;;;;;;0.60;0.60;;;7.80;99.90;;;;;;5053901;28;20229;-81
2023/11/10 07:09:25;;;;;;;0.50;0.40;;;7.80;99.90;;;;;;5058095;28;20199;-82
2023/11/10 07:11:52;;;;;;;0.60;0.60;;;7.80;99.90;;;;;;5057752;28;20240;-81
2023/11/10 07:14:19;;;;;;;3.00;0.73;;;7.80;99.90;;;;;;5058744;28;20550;-80
2023/11/10 07:16:46;;;;;;;0.50;0.40;;;7.80;99.90;;;;;;5057521;28;20318;-81
2023/11/10 07:19:14;;;;;;;0.50;0.40;;;7.80;99.90;;;;;;5057340;28;20203;-82
2023/11/10 07:21:40;;;;;;;1.40;0.50;;;7.80;99.90;;;;;;5057932;28;20306;-83
2023/11/10 07:24:09;;;;;;;0.50;0.40;;;7.80;99.90;;;;;;5058459;28;20192;-82
2023/11/10 07:26:35;;;;;;;2.17;1.00;;;7.80;99.90;;;;;;5058181;28;20269;-81
2023/11/10 07:29:03;;;;;;;1.52;1.40;;;7.80;99.90;;;;;;5059447;28;20206;-82
2023/11/10 07:31:31;;;;;;;1.45;0.98;;;7.90;99.90;;;;;;5064074;28;20195;-83
2023/11/10 07:33:59;;;;;;;0.50;0.50;;;7.90;99.90;;;;;;5053226;28;20205;-82
2023/11/10 07:36:27;;;;;;;2.50;0.70;;;7.90;99.90;;;;;;5060416;28;20219;-82
2023/11/10 07:38:54;;;;;;;0.50;0.40;;;7.90;99.90;;;;;;5061732;28;20275;-82
2023/11/10 07:41:21;;;;;;;0.50;0.40;;;8.00;99.90;;;;;;5061322;28;20248;-81
2023/11/10 07:43:48;;;;;;;0.50;0.40;;;8.00;99.90;;;;;;5060335;28;20225;-82
2023/11/10 07:46:15;;;;;;;3.50;0.80;;;8.00;99.90;;;;;;5061102;28;20282;-81
2023/11/10 07:48:42;;;;;;;0.70;0.70;;;8.00;99.90;;;;;;5061534;28;20199;-82
2023/11/10 07:51:09;;;;;;;0.50;0.50;;;8.20;99.90;;;;;;5063562;28;20217;-82
2023/11/10 07:53:38;;;;;;;0.50;0.50;;;8.70;99.90;;;;;;5061283;28;20647;-82
2023/11/10 07:56:05;;;;;;;0.60;0.50;;;9.20;99.90;;;;;;5059995;28;20218;-81
2023/11/10 07:58:32;;;;;;;1.95;1.17;;;9.80;99.90;;;;;;5058117;28;20661;-81
2023/11/10 08:00:59;;;;;;;0.50;0.40;;;10.30;99.90;;;;;;5057493;28;20200;-82
2023/11/10 08:03:26;;;;;;;0.60;0.50;;;10.50;99.90;;;;;;5057926;28;20281;-82
2023/11/10 08:05:53;;;;;;;0.50;0.40;;;10.90;99.90;;;;;;5057874;28;20441;-82
2023/11/10 08:08:20;;;;;;;0.50;0.40;;;10.60;99.90;;;;;;5058384;28;20988;-81
2023/11/10 08:10:48;;;;;;;1.13;1.03;;;10.90;99.90;;;;;;5056739;28;20452;-82
2023/11/10 08:13:15;;;;;;;0.53;0.40;;;11.20;99.90;;;;;;5056629;28;20434;-82
2023/11/10 08:15:43;;;;;;;1.00;0.90;;;11.50;99.90;;;;;;5056620;28;20437;-82
2023/11/10 08:18:11;;;;;;;0.50;0.40;;;11.40;99.90;;;;;;5057248;28;20801;-82
2023/11/10 08:20:39;;;;;;;0.60;0.50;;;11.30;99.90;;;;;;5056178;28;20438;-81
2023/11/10 08:23:06;;;;;;;0.73;0.50;;;11.70;99.90;;;;;;5056660;28;20504;-80
2023/11/10 08:25:33;;;;;;;0.83;0.60;;;11.60;99.90;;;;;;5056208;28;20445;-82
2023/11/10 08:28:04;;;;;;;0.50;0.40;;;11.70;99.90;;;;;;5058506;28;20445;-82
2023/11/10 08:30:31;;;;;;;0.70;0.70;;;12.20;99.90;;;;;;5059605;28;21071;-82
2023/11/10 08:32:59;;;;;;;0.50;0.50;;;12.20;99.90;;;;;;5062987;28;20545;-82
2023/11/10 08:35:26;;;;;;;1.27;0.60;;;12.40;99.90;;;;;;5063247;28;20438;-81
2023/11/10 08:37:53;;;;;;;0.50;0.40;;;12.80;99.90;;;;;;5076211;23;20494;-80
2023/11/10 08:40:19;;;;;;;4.10;1.37;;;12.80;99.90;;;;;;5052019;28;20456;-79
2023/11/10 08:42:46;;;;;;;0.50;0.40;;;12.20;99.90;;;;;;5053869;28;21015;-80
2023/11/10 08:45:14;;;;;;;0.80;0.50;;;12.00;99.90;;;;;;5041600;28;20476;-78
2023/11/10 08:47:42;;;;;;;0.50;0.40;;;11.60;99.90;;;;;;5055017;28;20508;-78
2023/11/10 08:50:11;;;;;;;0.60;0.50;;;11.10;99.90;;;;;;5058442;28;20453;-82
2023/11/10 08:52:40;;;;;;;0.50;0.40;;;11.20;99.90;;;;;;5055701;28;20195;-80
2023/11/10 08:55:10;;;;;;;0.50;0.40;;;11.00;99.90;;;;;;5048112;28;20260;-80
2023/11/10 08:57:38;;;;;;;0.60;0.60;;;10.70;99.90;;;;;;5059493;28;20713;-80
2023/11/10 09:00:06;;;;;;;0.50;0.40;;;10.60;99.90;;;;;;5057149;28;20199;-79
2023/11/10 09:02:35;;;;;;;0.60;0.50;;;10.50;99.90;;;;;;5056822;28;20500;-80
2023/11/10 09:05:03;;;;;;;0.50;0.40;;;10.40;99.90;;;;;;5055805;28;21034;-80
2023/11/10 09:07:29;;;;;;;0.53;0.53;;;10.30;99.90;;;;;;5057520;28;20202;-82
2023/11/10 09:09:58;;;;;;;0.50;0.50;;;10.40;99.90;;;;;;5056228;28;20452;-79
2023/11/10 09:12:25;;;;;;;1.53;0.77;;;10.60;99.90;;;;;;5058293;28;20290;-81
2023/11/10 09:14:53;;;;;;;1.00;0.70;;;10.60;99.90;;;;;;5056259;28;20445;-80
2023/11/10 09:17:21;;;;;;;0.50;0.40;;;10.70;99.90;;;;;;5057955;28;20442;-80
2023/11/10 09:19:49;;;;;;;0.60;0.60;;;10.80;99.90;;;;;;5057635;28;20441;-82
2023/11/10 09:22:16;;;;;;;0.90;0.70;;;10.90;99.90;;;;;;5058535;28;20481;-82
2023/11/10 09:24:43;;;;;;;0.60;0.50;;;10.90;99.90;;;;;;5058621;28;20463;-81
2023/11/10 09:27:10;;;;;;;1.33;0.50;;;11.00;99.90;;;;;;5048334;28;20442;-80
2023/11/10 09:29:36;;;;;;;1.33;1.23;;;11.30;99.90;;;;;;5055680;28;20556;-81
2023/11/10 09:32:03;;;;;;;1.07;1.07;;;11.30;99.90;;;;;;5050175;28;20457;-79
2023/11/10 09:34:30;;;;;;;1.08;0.60;;;11.10;99.90;;;;;;5054036;28;20473;-77
2023/11/10 09:36:58;;;;;;;1.60;1.07;;;11.00;99.90;;;;;;5054355;28;20290;-80
2023/11/10 09:39:25;;;;;;;7.30;1.10;;;10.90;99.90;;;;;;5056047;28;20960;-79
2023/11/10 09:41:55;;;;;;;0.50;0.50;;;10.80;99.90;;;;;;5056238;28;20454;-79
2023/11/10 09:44:23;;;;;;;0.50;0.50;;;10.80;99.90;;;;;;5057178;28;20539;-80
2023/11/10 09:46:50;;;;;;;0.70;0.70;;;10.70;99.90;;;;;;5056707;28;20533;-79
2023/11/10 09:49:19;;;;;;;0.50;0.50;;;10.50;99.90;;;;;;5057395;28;20678;-78
2023/11/10 09:51:47;;;;;;;0.70;0.68;;;10.50;99.90;;;;;;5056995;28;20199;-79
2023/11/10 09:54:16;;;;;;;0.93;0.60;;;10.40;99.90;;;;;;5049364;28;20191;-80
2023/11/10 09:56:44;;;;;;;0.70;0.70;;;10.30;99.90;;;;;;5056127;28;20199;-81
2023/11/10 09:59:12;;;;;;;0.60;0.50;;;10.30;99.90;;;;;;5056705;28;20221;-79
2023/11/10 10:01:39;;;;;;;0.60;0.47;;;10.20;99.90;;;;;;5057938;28;20472;-80
2023/11/10 10:04:06;;;;;;;0.50;0.40;;;10.10;99.90;;;;;;5056973;28;20485;-80
2023/11/10 10:06:35;;;;;;;2.77;0.83;;;10.10;99.90;;;;;;5056858;28;20190;-77
2023/11/10 10:09:04;;;;;;;0.90;0.90;;;10.00;99.90;;;;;;5055669;28;20462;-81
2023/11/10 10:11:33;;;;;;;2.78;1.15;;;9.90;99.90;;;;;;5057293;28;20432;-80
2023/11/10 10:14:00;;;;;;;5.18;1.50;;;9.80;99.90;;;;;;5057080;28;20641;-80
2023/11/10 10:16:27;;;;;;;1.83;0.75;;;9.70;99.90;;;;;;5055125;28;20191;-80
2023/11/10 10:18:56;;;;;;;1.77;1.67;;;9.70;99.90;;;;;;5054763;28;20223;-81
2023/11/10 10:21:23;;;;;;;0.52;0.52;;;9.80;99.90;;;;;;5056243;28;20206;-80
2023/11/10 10:23:50;;;;;;;1.35;0.60;;;9.80;99.90;;;;;;5055788;28;20219;-78
2023/11/10 10:26:17;;;;;;;3.90;0.88;;;9.90;99.90;;;;;;5055911;28;20202;-80
2023/11/10 10:28:46;;;;;;;0.50;0.40;;;9.90;99.90;;;;;;5055315;28;20290;-80
2023/11/10 10:31:14;;;;;;;0.93;0.82;;;10.00;99.90;;;;;;5056273;28;20223;-79
2023/11/10 10:33:42;;;;;;;0.50;0.40;;;10.10;99.90;;;;;;5055268;28;20684;-81
2023/11/10 10:36:09;;;;;;;1.30;1.25;;;10.20;99.90;;;;;;5054562;28;20199;-79
2023/11/10 10:38:38;;;;;;;5.40;1.67;;;10.20;99.90;;;;;;5054639;28;20222;-80
2023/11/10 10:41:06;;;;;;;1.30;1.20;;;10.30;99.90;;;;;;5055257;28;20206;-80
2023/11/10 10:43:34;;;;;;;0.50;0.40;;;10.30;99.90;;;;;;5055470;28;20219;-80
2023/11/10 10:46:03;;;;;;;5.78;0.90;;;10.40;99.90;;;;;;5055103;28;20438;-80
2023/11/10 10:48:31;;;;;;;0.60;0.60;;;10.30;99.90;;;;;;5054579;28;20659;-80
2023/11/10 10:50:59;;;;;;;1.13;1.00;;;10.30;99.90;;;;;;5054760;28;20658;-80
2023/11/10 10:53:27;;;;;;;0.50;0.40;;;10.30;99.90;;;;;;5055286;28;20883;-81
2023/11/10 10:55:55;;;;;;;0.60;0.50;;;10.20;99.90;;;;;;5055032;28;20211;-79
2023/11/10 10:58:22;;;;;;;0.50;0.50;;;10.20;99.90;;;;;;5055069;28;20219;-76
2023/11/10 11:00:49;;;;;;;0.50;0.40;;;10.20;99.90;;;;;;5055322;28;20206;-79
2023/11/10 11:03:39;;;;;;;3.90;0.60;;;10.10;99.90;;;;;;5057067;28;20593;-79
2023/11/10 11:06:33;;;;;;;1.47;1.37;;;10.20;99.90;;;;;;5059102;28;20445;-79
2023/11/10 11:09:13;;;;;;;0.60;0.50;;;10.20;99.90;;;;;;5059123;28;20987;-79
2023/11/10 11:12:02;;;;;;;0.73;0.73;;;10.20;99.90;;;;;;5058928;28;20452;-79
2023/11/10 11:14:39;;;;;;;1.45;0.70;;;10.10;99.90;;;;;;5052199;28;20490;-80
2023/11/10 11:17:32;;;;;;;0.60;0.50;;;10.10;99.90;;;;;;5058938;28;20226;-80
2023/11/10 11:20:01;;;;;;;0.50;0.40;;;10.00;99.90;;;;;;5056687;28;20205;-80
2023/11/10 11:22:28;;;;;;;0.50;0.40;;;10.00;99.90;;;;;;5059757;28;20433;-78
2023/11/10 11:25:05;;;;;;;0.50;0.40;;;9.90;99.90;;;;;;5058127;28;20296;-80
2023/11/10 11:27:34;;;;;;;0.60;0.57;;;9.90;99.90;;;;;;5052559;28;20190;-80
2023/11/10 11:30:07;;;;;;;3.17;0.98;;;9.80;99.90;;;;;;5058127;28;20195;-79
2023/11/10 11:32:40;;;;;;;1.25;0.50;;;9.60;99.90;;;;;;5057971;28;20201;-79
2023/11/10 11:35:12;;;;;;;0.50;0.50;;;9.40;99.90;;;;;;5057831;28;20199;-80
2023/11/10 11:37:39;;;;;;;1.35;0.77;;;9.20;99.90;;;;;;5057800;28;20195;-80
2023/11/10 11:40:09;;;;;;;0.50;0.40;;;8.90;99.90;;;;;;5058041;28;20206;-79
2023/11/10 11:42:38;;;;;;;0.50;0.40;;;8.70;99.90;;;;;;5058083;28;20195;-79
2023/11/10 11:45:12;;;;;;;0.50;0.40;;;8.70;99.90;;;;;;5057550;28;20569;-81
2023/11/10 11:47:39;;;;;;;0.50;0.40;;;8.60;99.90;;;;;;5057505;28;20221;-81
2023/11/10 11:50:09;;;;;;;0.50;0.50;;;8.60;99.90;;;;;;5055170;28;20201;-78
2023/11/10 11:52:36;;;;;;;4.28;0.80;;;8.60;99.90;;;;;;5054554;28;20274;-78
2023/11/10 11:55:04;;;;;;;0.50;0.50;;;8.60;99.90;;;;;;5054312;28;20210;-79
2023/11/10 11:57:34;;;;;;;1.15;0.50;;;8.50;99.90;;;;;;5055159;28;20192;-78
2023/11/10 12:00:02;;;;;;;0.50;0.40;;;8.60;99.90;;;;;;5057037;28;20272;-77
2023/11/10 12:02:29;;;;;;;0.70;0.63;;;8.60;99.90;;;;;;5057902;28;20203;-75
2023/11/10 12:04:55;;;;;;;0.70;0.70;;;8.60;99.90;;;;;;5056758;28;20226;-80
2023/11/10 12:07:24;;;;;;;0.50;0.40;;;8.50;99.90;;;;;;5056793;28;20221;-78
2023/11/10 12:09:51;;;;;;;0.50;0.40;;;8.40;99.90;;;;;;5055969;28;20206;-80
2023/11/10 12:12:18;;;;;;;1.95;0.50;;;8.40;99.90;;;;;;5057589;28;20257;-78
2023/11/10 12:14:45;;;;;;;0.50;0.50;;;8.30;99.90;;;;;;5050270;28;20674;-79
2023/11/10 12:17:11;;;;;;;0.50;0.40;;;8.40;99.90;;;;;;5054070;28;20199;-78
2023/11/10 12:19:39;;;;;;;0.60;0.50;;;8.40;99.90;;;;;;5054982;28;20211;-80
2023/11/10 12:22:06;;;;;;;1.65;0.80;;;8.40;99.90;;;;;;5054423;28;20203;-79
2023/11/10 12:24:35;;;;;;;0.50;0.40;;;8.40;99.90;;;;;;5054253;28;20207;-78
2023/11/10 12:27:03;;;;;;;0.68;0.68;;;8.40;99.90;;;;;;5054734;28;20535;-77
2023/11/10 12:29:30;;;;;;;1.55;0.50;;;8.30;99.90;;;;;;5054270;28;20215;-79
2023/11/10 12:31:58;;;;;;;0.50;0.40;;;8.20;99.90;;;;;;5055087;28;20199;-79
2023/11/10 12:34:25;;;;;;;0.50;0.40;;;8.10;99.90;;;;;;5054801;28;20187;-79
2023/11/10 12:36:52;;;;;;;0.50;0.40;;;8.20;99.90;;;;;;5054835;28;20277;-79
2023/11/10 12:39:19;;;;;;;0.60;0.50;;;8.20;99.90;;;;;;5055312;28;20222;-79
2023/11/10 12:41:50;;;;;;;3.10;2.58;;;8.20;99.90;;;;;;5055079;28;20301;-78
2023/11/10 12:44:19;;;;;;;0.70;0.70;;;8.20;99.90;;;;;;5054807;28;20594;-79
2023/11/10 12:46:56;;;;;;;0.50;0.40;;;8.30;99.90;;;;;;5059891;28;20203;-78
2023/11/10 12:49:24;;;;;;;0.70;0.50;;;8.30;99.90;;;;;;5055591;28;20369;-80
2023/11/10 12:51:51;;;;;;;0.50;0.40;;;8.30;99.90;;;;;;5055771;28;20209;-79
2023/11/10 12:54:22;;;;;;;0.50;0.50;;;8.40;99.90;;;;;;5056902;28;20202;-79
2023/11/10 12:56:50;;;;;;;0.60;0.60;;;8.40;99.90;;;;;;5057036;28;20557;-80
2023/11/10 12:59:26;;;;;;;1.23;0.60;;;8.50;99.90;;;;;;5055698;28;20215;-80